sensor_id;sensor_type;location;lat;lon;timestamp;temperature;humidity
21123;DHT22;10719;48.130;11.630;2022-12-07T00:01:05;2.50;99.90
21123;DHT22;10719;48.130;11.630;2022-12-07T00:03:30;2.40;99.90
21123;DHT22;10719;48.130;11.630;2022-12-07T00:06:00;2.50;99.90
21123;DHT22;10719;48.130;11.630;2022-12-07T00:08:26;2.50;99.90
21123;DHT22;10719;48.130;11.630;2022-12-07T00:10:51;2.40;99.90
21123;DHT22;10719;48.130;11.630;2022-12-07T00:13:17;2.30;99.90
21123;DHT22;10719;48.130;11.630;2022-12-07T00:15:43;2.40;99.90
21123;DHT22;10719;48.130;11.630;2022-12-07T00:18:08;2.50;99.90
21123;DHT22;10719;48.130;11.630;2022-12-07T00:20:34;2.60;99.90
21123;DHT22;10719;48.130;11.630;2022-12-07T00:23:00;2.50;99.90
21123;DHT22;10719;48.130;11.630;2022-12-07T00:25:25;2.60;99.90
21123;DHT22;10719;48.130;11.630;2022-12-07T00:27:53;2.60;99.90
21123;DHT22;10719;48.130;11.630;2022-12-07T00:30:21;2.60;99.90
21123;DHT22;10719;48.130;11.630;2022-12-07T00:32:46;2.60;99.90
21123;DHT22;10719;48.130;11.630;2022-12-07T00:35:12;2.60;99.90
21123;DHT22;10719;48.130;11.630;2022-12-07T00:37:38;2.60;99.90
21123;DHT22;10719;48.130;11.630;2022-12-07T00:40:04;2.60;99.90
21123;DHT22;10719;48.130;11.630;2022-12-07T00:42:30;2.50;99.90
21123;DHT22;10719;48.130;11.630;2022-12-07T00:44:55;2.50;99.90
21123;DHT22;10719;48.130;11.630;2022-12-07T00:47:21;2.40;99.90
21123;DHT22;10719;48.130;11.630;2022-12-07T00:49:46;2.40;99.90
21123;DHT22;10719;48.130;11.630;2022-12-07T00:52:12;2.50;99.90
21123;DHT22;10719;48.130;11.630;2022-12-07T00:54:37;2.50;99.90
21123;DHT22;10719;48.130;11.630;2022-12-07T00:57:03;2.40;99.90
21123;DHT22;10719;48.130;11.630;2022-12-07T00:59:28;2.50;99.90
21123;DHT22;10719;48.130;11.630;2022-12-07T01:01:54;2.40;99.90
21123;DHT22;10719;48.130;11.630;2022-12-07T01:04:20;2.40;99.90
21123;DHT22;10719;48.130;11.630;2022-12-07T01:06:45;2.40;99.90
21123;DHT22;10719;48.130;11.630;2022-12-07T01:09:11;2.40;99.90
21123;DHT22;10719;48.130;11.630;2022-12-07T01:11:36;2.40;99.90
21123;DHT22;10719;48.130;11.630;2022-12-07T01:14:02;2.40;99.90
21123;DHT22;10719;48.130;11.630;2022-12-07T01:16:30;2.40;99.90
21123;DHT22;10719;48.130;11.630;2022-12-07T01:18:58;2.50;99.90
21123;DHT22;10719;48.130;11.630;2022-12-07T01:21:28;2.40;99.90
21123;DHT22;10719;48.130;11.630;2022-12-07T01:23:56;2.40;99.90
21123;DHT22;10719;48.130;11.630;2022-12-07T01:26:23;2.40;99.90
21123;DHT22;10719;48.130;11.630;2022-12-07T01:28:49;2.40;99.90
21123;DHT22;10719;48.130;11.630;2022-12-07T01:31:18;2.40;99.90
21123;DHT22;10719;48.130;11.630;2022-12-07T01:33:47;2.40;99.90
21123;DHT22;10719;48.130;11.630;2022-12-07T01:38:39;2.50;99.90
21123;DHT22;10719;48.130;11.630;2022-12-07T01:41:04;2.50;99.90
21123;DHT22;10719;48.130;11.630;2022-12-07T01:43:32;2.40;99.90
21123;DHT22;10719;48.130;11.630;2022-12-07T01:45:59;2.50;99.90
21123;DHT22;10719;48.130;11.630;2022-12-07T01:48:29;2.50;99.90
21123;DHT22;10719;48.130;11.630;2022-12-07T01:50:56;2.40;99.90
21123;DHT22;10719;48.130;11.630;2022-12-07T01:53:27;2.50;99.90
21123;DHT22;10719;48.130;11.630;2022-12-07T01:55:54;2.50;99.90
21123;DHT22;10719;48.130;11.630;2022-12-07T01:58:22;2.30;99.90
21123;DHT22;10719;48.130;11.630;2022-12-07T02:00:49;2.30;99.90
21123;DHT22;10719;48.130;11.630;2022-12-07T02:03:20;2.40;99.90
21123;DHT22;10719;48.130;11.630;2022-12-07T02:05:48;2.40;99.90
21123;DHT22;10719;48.130;11.630;2022-12-07T02:08:14;2.40;99.90
21123;DHT22;10719;48.130;11.630;2022-12-07T02:10:40;2.40;99.90
21123;DHT22;10719;48.130;11.630;2022-12-07T02:22:29;2.20;99.90
21123;DHT22;10719;48.130;11.630;2022-12-07T02:28:01;2.40;99.90
21123;DHT22;10719;48.130;11.630;2022-12-07T02:30:32;2.30;99.90
21123;DHT22;10719;48.130;11.630;2022-12-07T02:33:08;2.30;99.90
21123;DHT22;10719;48.130;11.630;2022-12-07T02:35:41;2.30;99.90
21123;DHT22;10719;48.130;11.630;2022-12-07T02:38:25;2.40;99.90
21123;DHT22;10719;48.130;11.630;2022-12-07T02:43:28;2.20;99.90
21123;DHT22;10719;48.130;11.630;2022-12-07T02:46:03;2.20;99.90
21123;DHT22;10719;48.130;11.630;2022-12-07T02:48:31;2.30;99.90
21123;DHT22;10719;48.130;11.630;2022-12-07T02:50:57;2.30;99.90
21123;DHT22;10719;48.130;11.630;2022-12-07T02:53:34;2.30;99.90
21123;DHT22;10719;48.130;11.630;2022-12-07T02:58:50;2.40;99.90
21123;DHT22;10719;48.130;11.630;2022-12-07T03:07:24;2.50;99.90
21123;DHT22;10719;48.130;11.630;2022-12-07T03:10:44;2.40;99.90
21123;DHT22;10719;48.130;11.630;2022-12-07T03:18:23;2.40;99.90
21123;DHT22;10719;48.130;11.630;2022-12-07T03:20:52;2.30;99.90
21123;DHT22;10719;48.130;11.630;2022-12-07T03:23:19;2.30;99.90
21123;DHT22;10719;48.130;11.630;2022-12-07T03:25:49;2.40;99.90
21123;DHT22;10719;48.130;11.630;2022-12-07T03:28:19;2.40;99.90
21123;DHT22;10719;48.130;11.630;2022-12-07T03:33:23;2.30;99.90
21123;DHT22;10719;48.130;11.630;2022-12-07T03:38:32;2.40;99.90
21123;DHT22;10719;48.130;11.630;2022-12-07T03:41:04;2.50;99.90
21123;DHT22;10719;48.130;11.630;2022-12-07T03:43:32;2.40;99.90
21123;DHT22;10719;48.130;11.630;2022-12-07T03:54:33;2.40;99.90
21123;DHT22;10719;48.130;11.630;2022-12-07T03:57:03;2.40;99.90
21123;DHT22;10719;48.130;11.630;2022-12-07T03:59:30;2.40;99.90
21123;DHT22;10719;48.130;11.630;2022-12-07T04:02:01;2.40;99.90
21123;DHT22;10719;48.130;11.630;2022-12-07T04:04:28;2.30;99.90
21123;DHT22;10719;48.130;11.630;2022-12-07T04:06:53;2.30;99.90
21123;DHT22;10719;48.130;11.630;2022-12-07T04:09:19;2.30;99.90
21123;DHT22;10719;48.130;11.630;2022-12-07T04:11:45;2.30;99.90
21123;DHT22;10719;48.130;11.630;2022-12-07T04:14:11;2.30;99.90
21123;DHT22;10719;48.130;11.630;2022-12-07T04:16:54;2.30;99.90
21123;DHT22;10719;48.130;11.630;2022-12-07T04:19:24;2.40;99.90
21123;DHT22;10719;48.130;11.630;2022-12-07T04:21:50;2.30;99.90
21123;DHT22;10719;48.130;11.630;2022-12-07T04:24:20;2.40;99.90
21123;DHT22;10719;48.130;11.630;2022-12-07T04:26:46;2.30;99.90
21123;DHT22;10719;48.130;11.630;2022-12-07T04:29:12;2.40;99.90
21123;DHT22;10719;48.130;11.630;2022-12-07T04:31:38;2.30;99.90
21123;DHT22;10719;48.130;11.630;2022-12-07T04:34:04;2.30;99.90
21123;DHT22;10719;48.130;11.630;2022-12-07T04:36:31;2.20;99.90
21123;DHT22;10719;48.130;11.630;2022-12-07T04:38:57;2.30;99.90
21123;DHT22;10719;48.130;11.630;2022-12-07T04:41:23;2.10;99.90
21123;DHT22;10719;48.130;11.630;2022-12-07T04:44:00;2.20;99.90
21123;DHT22;10719;48.130;11.630;2022-12-07T04:46:28;2.20;99.90
21123;DHT22;10719;48.130;11.630;2022-12-07T04:48:54;2.20;99.90
21123;DHT22;10719;48.130;11.630;2022-12-07T04:51:25;2.20;99.90
21123;DHT22;10719;48.130;11.630;2022-12-07T04:53:51;2.20;99.90
21123;DHT22;10719;48.130;11.630;2022-12-07T04:56:17;2.20;99.90
21123;DHT22;10719;48.130;11.630;2022-12-07T04:58:45;2.20;99.90
21123;DHT22;10719;48.130;11.630;2022-12-07T05:01:12;2.20;99.90
21123;DHT22;10719;48.130;11.630;2022-12-07T05:03:38;2.10;99.90
21123;DHT22;10719;48.130;11.630;2022-12-07T05:06:04;2.10;99.90
21123;DHT22;10719;48.130;11.630;2022-12-07T05:08:30;2.10;99.90
21123;DHT22;10719;48.130;11.630;2022-12-07T05:10:57;2.10;99.90
21123;DHT22;10719;48.130;11.630;2022-12-07T05:13:22;2.10;99.90
21123;DHT22;10719;48.130;11.630;2022-12-07T05:15:48;2.20;99.90
21123;DHT22;10719;48.130;11.630;2022-12-07T05:18:15;2.20;99.90
21123;DHT22;10719;48.130;11.630;2022-12-07T05:20:41;2.20;99.90
21123;DHT22;10719;48.130;11.630;2022-12-07T05:23:07;2.20;99.90
21123;DHT22;10719;48.130;11.630;2022-12-07T05:25:33;2.20;99.90
21123;DHT22;10719;48.130;11.630;2022-12-07T05:27:59;2.20;99.90
21123;DHT22;10719;48.130;11.630;2022-12-07T05:30:25;2.20;99.90
21123;DHT22;10719;48.130;11.630;2022-12-07T05:32:51;2.30;99.90
21123;DHT22;10719;48.130;11.630;2022-12-07T05:35:18;2.20;99.90
21123;DHT22;10719;48.130;11.630;2022-12-07T05:37:43;2.10;99.90
21123;DHT22;10719;48.130;11.630;2022-12-07T05:40:11;2.10;99.90
21123;DHT22;10719;48.130;11.630;2022-12-07T05:42:36;2.20;99.90
21123;DHT22;10719;48.130;11.630;2022-12-07T05:45:02;2.20;99.90
21123;DHT22;10719;48.130;11.630;2022-12-07T05:47:28;2.20;99.90
21123;DHT22;10719;48.130;11.630;2022-12-07T05:49:53;2.20;99.90
21123;DHT22;10719;48.130;11.630;2022-12-07T05:52:19;2.20;99.90
21123;DHT22;10719;48.130;11.630;2022-12-07T05:54:45;2.10;99.90
21123;DHT22;10719;48.130;11.630;2022-12-07T05:57:10;2.10;99.90
21123;DHT22;10719;48.130;11.630;2022-12-07T05:59:36;2.10;99.90
21123;DHT22;10719;48.130;11.630;2022-12-07T06:02:07;2.10;99.90
21123;DHT22;10719;48.130;11.630;2022-12-07T06:04:36;2.00;99.90
21123;DHT22;10719;48.130;11.630;2022-12-07T06:07:03;2.00;99.90
21123;DHT22;10719;48.130;11.630;2022-12-07T06:09:29;2.10;99.90
21123;DHT22;10719;48.130;11.630;2022-12-07T06:11:55;2.10;99.90
21123;DHT22;10719;48.130;11.630;2022-12-07T06:14:40;2.00;99.90
21123;DHT22;10719;48.130;11.630;2022-12-07T06:17:05;2.10;99.90
21123;DHT22;10719;48.130;11.630;2022-12-07T06:19:31;2.10;99.90
21123;DHT22;10719;48.130;11.630;2022-12-07T06:21:57;2.10;99.90
21123;DHT22;10719;48.130;11.630;2022-12-07T06:24:23;2.10;99.90
21123;DHT22;10719;48.130;11.630;2022-12-07T06:26:49;2.10;99.90
21123;DHT22;10719;48.130;11.630;2022-12-07T06:29:18;2.10;99.90
21123;DHT22;10719;48.130;11.630;2022-12-07T06:31:44;2.20;99.90
21123;DHT22;10719;48.130;11.630;2022-12-07T06:34:12;2.10;99.90
21123;DHT22;10719;48.130;11.630;2022-12-07T06:36:38;2.10;99.90
21123;DHT22;10719;48.130;11.630;2022-12-07T06:39:04;2.10;99.90
21123;DHT22;10719;48.130;11.630;2022-12-07T06:41:30;2.10;99.90
21123;DHT22;10719;48.130;11.630;2022-12-07T06:43:56;2.10;99.90
21123;DHT22;10719;48.130;11.630;2022-12-07T06:46:22;2.20;99.90
21123;DHT22;10719;48.130;11.630;2022-12-07T06:48:48;2.20;99.90
21123;DHT22;10719;48.130;11.630;2022-12-07T06:51:14;2.20;99.90
21123;DHT22;10719;48.130;11.630;2022-12-07T06:53:40;2.30;99.90
21123;DHT22;10719;48.130;11.630;2022-12-07T06:56:06;2.30;99.90
21123;DHT22;10719;48.130;11.630;2022-12-07T06:58:32;2.30;99.90
21123;DHT22;10719;48.130;11.630;2022-12-07T07:00:58;2.30;99.90
21123;DHT22;10719;48.130;11.630;2022-12-07T07:03:23;2.30;99.90
21123;DHT22;10719;48.130;11.630;2022-12-07T07:05:49;2.20;99.90
21123;DHT22;10719;48.130;11.630;2022-12-07T07:08:15;2.20;99.90
21123;DHT22;10719;48.130;11.630;2022-12-07T07:10:41;2.20;99.90
21123;DHT22;10719;48.130;11.630;2022-12-07T07:13:07;2.30;99.90
21123;DHT22;10719;48.130;11.630;2022-12-07T07:15:33;2.40;99.90
21123;DHT22;10719;48.130;11.630;2022-12-07T07:17:59;2.30;99.90
21123;DHT22;10719;48.130;11.630;2022-12-07T07:20:25;2.20;99.90
21123;DHT22;10719;48.130;11.630;2022-12-07T07:22:50;2.20;99.90
21123;DHT22;10719;48.130;11.630;2022-12-07T07:25:16;2.30;99.90
21123;DHT22;10719;48.130;11.630;2022-12-07T07:27:42;2.30;99.90
21123;DHT22;10719;48.130;11.630;2022-12-07T07:30:08;2.30;99.90
21123;DHT22;10719;48.130;11.630;2022-12-07T07:32:34;2.30;99.90
21123;DHT22;10719;48.130;11.630;2022-12-07T07:35:00;2.40;99.90
21123;DHT22;10719;48.130;11.630;2022-12-07T07:37:26;2.30;99.90
21123;DHT22;10719;48.130;11.630;2022-12-07T07:39:51;2.30;99.90
21123;DHT22;10719;48.130;11.630;2022-12-07T07:42:17;2.30;99.90
21123;DHT22;10719;48.130;11.630;2022-12-07T07:44:43;2.30;99.90
21123;DHT22;10719;48.130;11.630;2022-12-07T07:47:08;2.30;99.90
21123;DHT22;10719;48.130;11.630;2022-12-07T07:49:34;2.30;99.90
21123;DHT22;10719;48.130;11.630;2022-12-07T07:51:59;2.30;99.90
21123;DHT22;10719;48.130;11.630;2022-12-07T07:54:25;2.20;99.90
21123;DHT22;10719;48.130;11.630;2022-12-07T07:56:52;2.20;99.90
21123;DHT22;10719;48.130;11.630;2022-12-07T07:59:18;2.30;99.90
21123;DHT22;10719;48.130;11.630;2022-12-07T08:01:43;2.30;99.90
21123;DHT22;10719;48.130;11.630;2022-12-07T08:04:09;2.30;99.90
21123;DHT22;10719;48.130;11.630;2022-12-07T08:06:35;2.40;99.90
21123;DHT22;10719;48.130;11.630;2022-12-07T08:09:01;2.40;99.90
21123;DHT22;10719;48.130;11.630;2022-12-07T08:11:27;2.30;99.90
21123;DHT22;10719;48.130;11.630;2022-12-07T08:13:52;2.30;99.90
21123;DHT22;10719;48.130;11.630;2022-12-07T08:16:18;2.40;99.90
21123;DHT22;10719;48.130;11.630;2022-12-07T08:18:43;2.40;99.90
21123;DHT22;10719;48.130;11.630;2022-12-07T08:21:12;2.40;99.90
21123;DHT22;10719;48.130;11.630;2022-12-07T08:23:38;2.30;99.90
21123;DHT22;10719;48.130;11.630;2022-12-07T08:26:06;2.40;99.90
21123;DHT22;10719;48.130;11.630;2022-12-07T08:28:32;2.30;99.90
21123;DHT22;10719;48.130;11.630;2022-12-07T08:31:09;2.20;99.90
21123;DHT22;10719;48.130;11.630;2022-12-07T08:33:36;2.20;99.90
21123;DHT22;10719;48.130;11.630;2022-12-07T08:36:07;2.30;99.90
21123;DHT22;10719;48.130;11.630;2022-12-07T08:38:38;2.30;99.90
21123;DHT22;10719;48.130;11.630;2022-12-07T08:41:04;2.20;99.90
21123;DHT22;10719;48.130;11.630;2022-12-07T08:43:30;2.20;99.90
21123;DHT22;10719;48.130;11.630;2022-12-07T08:46:09;2.20;99.90
21123;DHT22;10719;48.130;11.630;2022-12-07T08:48:42;2.30;99.90
21123;DHT22;10719;48.130;11.630;2022-12-07T08:51:09;2.30;99.90
21123;DHT22;10719;48.130;11.630;2022-12-07T08:53:36;2.40;99.90
21123;DHT22;10719;48.130;11.630;2022-12-07T08:56:03;2.60;99.90
21123;DHT22;10719;48.130;11.630;2022-12-07T08:58:29;2.70;99.90
21123;DHT22;10719;48.130;11.630;2022-12-07T09:00:55;2.70;99.90
21123;DHT22;10719;48.130;11.630;2022-12-07T09:03:20;2.70;99.90
21123;DHT22;10719;48.130;11.630;2022-12-07T09:05:46;2.80;99.90
21123;DHT22;10719;48.130;11.630;2022-12-07T09:08:12;2.80;99.90
21123;DHT22;10719;48.130;11.630;2022-12-07T09:10:37;2.70;99.90
21123;DHT22;10719;48.130;11.630;2022-12-07T09:13:03;2.80;99.90
21123;DHT22;10719;48.130;11.630;2022-12-07T09:15:29;2.80;99.90
21123;DHT22;10719;48.130;11.630;2022-12-07T09:17:54;2.90;99.90
21123;DHT22;10719;48.130;11.630;2022-12-07T09:20:20;2.80;99.90
21123;DHT22;10719;48.130;11.630;2022-12-07T09:22:46;2.80;99.90
21123;DHT22;10719;48.130;11.630;2022-12-07T09:25:12;2.70;99.90
21123;DHT22;10719;48.130;11.630;2022-12-07T09:27:37;2.80;99.90
21123;DHT22;10719;48.130;11.630;2022-12-07T09:30:04;2.90;99.90
21123;DHT22;10719;48.130;11.630;2022-12-07T09:32:30;3.00;99.90
21123;DHT22;10719;48.130;11.630;2022-12-07T09:34:56;3.00;99.90
21123;DHT22;10719;48.130;11.630;2022-12-07T09:37:22;3.10;99.90
21123;DHT22;10719;48.130;11.630;2022-12-07T09:39:47;3.10;99.90
21123;DHT22;10719;48.130;11.630;2022-12-07T09:42:32;3.20;99.90
21123;DHT22;10719;48.130;11.630;2022-12-07T09:45:00;3.30;99.90
21123;DHT22;10719;48.130;11.630;2022-12-07T09:47:27;3.40;99.90
21123;DHT22;10719;48.130;11.630;2022-12-07T09:49:58;3.70;99.90
21123;DHT22;10719;48.130;11.630;2022-12-07T09:52:27;3.80;99.90
21123;DHT22;10719;48.130;11.630;2022-12-07T09:54:53;3.90;99.90
21123;DHT22;10719;48.130;11.630;2022-12-07T09:57:30;4.00;99.90
21123;DHT22;10719;48.130;11.630;2022-12-07T10:00:00;3.90;99.90
21123;DHT22;10719;48.130;11.630;2022-12-07T10:02:38;3.80;99.90
21123;DHT22;10719;48.130;11.630;2022-12-07T10:05:07;3.90;99.90
21123;DHT22;10719;48.130;11.630;2022-12-07T10:07:35;3.80;99.90
21123;DHT22;10719;48.130;11.630;2022-12-07T10:10:04;3.70;99.90
21123;DHT22;10719;48.130;11.630;2022-12-07T10:12:30;3.70;99.90
21123;DHT22;10719;48.130;11.630;2022-12-07T10:15:01;3.80;99.90
21123;DHT22;10719;48.130;11.630;2022-12-07T10:17:40;3.80;99.90
21123;DHT22;10719;48.130;11.630;2022-12-07T10:20:24;3.90;99.90
21123;DHT22;10719;48.130;11.630;2022-12-07T10:25:26;4.20;99.90
21123;DHT22;10719;48.130;11.630;2022-12-07T10:30:27;4.40;99.90
21123;DHT22;10719;48.130;11.630;2022-12-07T10:32:53;4.40;99.90
21123;DHT22;10719;48.130;11.630;2022-12-07T10:35:22;4.50;99.90
21123;DHT22;10719;48.130;11.630;2022-12-07T10:37:49;4.50;99.90
21123;DHT22;10719;48.130;11.630;2022-12-07T10:40:33;4.80;99.90
21123;DHT22;10719;48.130;11.630;2022-12-07T10:45:30;4.60;99.90
21123;DHT22;10719;48.130;11.630;2022-12-07T10:48:12;4.70;99.90
21123;DHT22;10719;48.130;11.630;2022-12-07T10:50:41;4.70;99.90
21123;DHT22;10719;48.130;11.630;2022-12-07T11:02:06;4.60;99.90
21123;DHT22;10719;48.130;11.630;2022-12-07T11:04:50;4.50;99.90
21123;DHT22;10719;48.130;11.630;2022-12-07T11:10:22;4.40;99.90
21123;DHT22;10719;48.130;11.630;2022-12-07T11:13:25;4.40;99.90
21123;DHT22;10719;48.130;11.630;2022-12-07T11:16:14;4.60;99.90
21123;DHT22;10719;48.130;11.630;2022-12-07T11:21:26;5.00;99.90
21123;DHT22;10719;48.130;11.630;2022-12-07T11:24:10;4.60;99.90
21123;DHT22;10719;48.130;11.630;2022-12-07T11:32:04;4.70;99.90
21123;DHT22;10719;48.130;11.630;2022-12-07T11:37:30;4.90;99.90
21123;DHT22;10719;48.130;11.630;2022-12-07T11:40:24;4.70;99.90
21123;DHT22;10719;48.130;11.630;2022-12-07T11:42:53;4.70;99.90
21123;DHT22;10719;48.130;11.630;2022-12-07T11:45:25;4.70;99.90
21123;DHT22;10719;48.130;11.630;2022-12-07T11:48:02;4.70;99.90
21123;DHT22;10719;48.130;11.630;2022-12-07T11:50:43;5.00;99.90
21123;DHT22;10719;48.130;11.630;2022-12-07T11:53:16;5.50;99.90
21123;DHT22;10719;48.130;11.630;2022-12-07T11:58:46;5.10;99.90
21123;DHT22;10719;48.130;11.630;2022-12-07T12:03:47;5.00;99.90
21123;DHT22;10719;48.130;11.630;2022-12-07T12:06:13;5.00;99.90
21123;DHT22;10719;48.130;11.630;2022-12-07T12:11:49;4.70;99.90
21123;DHT22;10719;48.130;11.630;2022-12-07T12:17:17;5.00;99.90
21123;DHT22;10719;48.130;11.630;2022-12-07T12:22:47;4.90;99.90
21123;DHT22;10719;48.130;11.630;2022-12-07T12:27:49;5.00;99.90
21123;DHT22;10719;48.130;11.630;2022-12-07T12:30:38;5.00;99.90
21123;DHT22;10719;48.130;11.630;2022-12-07T12:33:20;4.80;99.90
21123;DHT22;10719;48.130;11.630;2022-12-07T12:39:14;4.50;99.90
21123;DHT22;10719;48.130;11.630;2022-12-07T12:54:34;4.50;99.90
21123;DHT22;10719;48.130;11.630;2022-12-07T13:02:27;4.50;99.90
21123;DHT22;10719;48.130;11.630;2022-12-07T13:04:58;4.30;99.90
21123;DHT22;10719;48.130;11.630;2022-12-07T13:13:02;4.20;99.90
21123;DHT22;10719;48.130;11.630;2022-12-07T13:15:42;4.30;99.90
21123;DHT22;10719;48.130;11.630;2022-12-07T13:20:59;4.40;99.90
21123;DHT22;10719;48.130;11.630;2022-12-07T13:23:31;4.60;99.90
21123;DHT22;10719;48.130;11.630;2022-12-07T13:26:09;4.90;99.90
21123;DHT22;10719;48.130;11.630;2022-12-07T13:28:40;5.20;99.90
21123;DHT22;10719;48.130;11.630;2022-12-07T13:33:35;5.30;99.90
21123;DHT22;10719;48.130;11.630;2022-12-07T13:36:00;5.20;99.90
21123;DHT22;10719;48.130;11.630;2022-12-07T13:38:32;5.30;99.90
21123;DHT22;10719;48.130;11.630;2022-12-07T13:41:15;5.50;99.90
21123;DHT22;10719;48.130;11.630;2022-12-07T13:44:02;5.20;99.90
21123;DHT22;10719;48.130;11.630;2022-12-07T13:49:28;4.90;99.90
21123;DHT22;10719;48.130;11.630;2022-12-07T13:51:56;4.80;99.90
21123;DHT22;10719;48.130;11.630;2022-12-07T13:54:32;4.60;99.90
21123;DHT22;10719;48.130;11.630;2022-12-07T13:56:58;4.60;99.90
21123;DHT22;10719;48.130;11.630;2022-12-07T13:59:25;4.70;99.90
21123;DHT22;10719;48.130;11.630;2022-12-07T14:01:52;4.70;99.90
21123;DHT22;10719;48.130;11.630;2022-12-07T14:04:36;4.80;99.90
21123;DHT22;10719;48.130;11.630;2022-12-07T14:12:21;4.50;99.90
21123;DHT22;10719;48.130;11.630;2022-12-07T14:14:48;4.50;99.90
21123;DHT22;10719;48.130;11.630;2022-12-07T14:17:18;4.40;99.90
21123;DHT22;10719;48.130;11.630;2022-12-07T14:24:49;4.20;99.90
21123;DHT22;10719;48.130;11.630;2022-12-07T14:27:20;4.20;99.90
21123;DHT22;10719;48.130;11.630;2022-12-07T14:29:46;4.00;99.90
21123;DHT22;10719;48.130;11.630;2022-12-07T14:32:24;3.90;99.90
21123;DHT22;10719;48.130;11.630;2022-12-07T14:35:12;3.90;99.90
21123;DHT22;10719;48.130;11.630;2022-12-07T14:37:40;4.00;99.90
21123;DHT22;10719;48.130;11.630;2022-12-07T14:40:06;4.00;99.90
21123;DHT22;10719;48.130;11.630;2022-12-07T14:42:35;4.00;99.90
21123;DHT22;10719;48.130;11.630;2022-12-07T14:45:01;4.00;99.90
21123;DHT22;10719;48.130;11.630;2022-12-07T14:47:29;4.00;99.90
21123;DHT22;10719;48.130;11.630;2022-12-07T14:49:55;4.10;99.90
21123;DHT22;10719;48.130;11.630;2022-12-07T14:52:27;3.90;99.90
21123;DHT22;10719;48.130;11.630;2022-12-07T14:54:53;3.90;99.90
21123;DHT22;10719;48.130;11.630;2022-12-07T14:57:19;3.90;99.90
21123;DHT22;10719;48.130;11.630;2022-12-07T14:59:45;3.80;99.90
21123;DHT22;10719;48.130;11.630;2022-12-07T15:02:12;3.80;99.90
21123;DHT22;10719;48.130;11.630;2022-12-07T15:04:37;3.70;99.90
21123;DHT22;10719;48.130;11.630;2022-12-07T15:07:05;3.50;99.90
21123;DHT22;10719;48.130;11.630;2022-12-07T15:09:31;3.40;99.90
21123;DHT22;10719;48.130;11.630;2022-12-07T15:11:57;3.30;99.90
21123;DHT22;10719;48.130;11.630;2022-12-07T15:14:22;3.20;99.90
21123;DHT22;10719;48.130;11.630;2022-12-07T15:16:48;3.10;99.90
21123;DHT22;10719;48.130;11.630;2022-12-07T15:19:22;3.10;99.90
21123;DHT22;10719;48.130;11.630;2022-12-07T15:21:49;3.00;99.90
21123;DHT22;10719;48.130;11.630;2022-12-07T15:24:15;2.90;99.90
21123;DHT22;10719;48.130;11.630;2022-12-07T15:26:41;2.80;99.90
21123;DHT22;10719;48.130;11.630;2022-12-07T15:29:07;2.80;99.90
21123;DHT22;10719;48.130;11.630;2022-12-07T15:31:34;2.70;99.90
21123;DHT22;10719;48.130;11.630;2022-12-07T15:34:00;2.60;99.90
21123;DHT22;10719;48.130;11.630;2022-12-07T15:36:28;2.60;99.90
21123;DHT22;10719;48.130;11.630;2022-12-07T15:38:54;2.50;99.90
21123;DHT22;10719;48.130;11.630;2022-12-07T15:41:21;2.60;99.90
21123;DHT22;10719;48.130;11.630;2022-12-07T15:43:46;2.50;99.90
21123;DHT22;10719;48.130;11.630;2022-12-07T15:46:36;2.60;99.90
21123;DHT22;10719;48.130;11.630;2022-12-07T15:49:03;2.50;99.90
21123;DHT22;10719;48.130;11.630;2022-12-07T15:51:29;2.50;99.90
21123;DHT22;10719;48.130;11.630;2022-12-07T15:53:57;2.50;99.90
21123;DHT22;10719;48.130;11.630;2022-12-07T15:56:22;2.50;99.90
21123;DHT22;10719;48.130;11.630;2022-12-07T15:58:48;2.50;99.90
21123;DHT22;10719;48.130;11.630;2022-12-07T16:01:16;2.60;99.90
21123;DHT22;10719;48.130;11.630;2022-12-07T16:03:44;2.70;99.90
21123;DHT22;10719;48.130;11.630;2022-12-07T16:06:10;2.60;99.90
21123;DHT22;10719;48.130;11.630;2022-12-07T16:08:36;2.60;99.90
21123;DHT22;10719;48.130;11.630;2022-12-07T16:11:05;2.60;99.90
21123;DHT22;10719;48.130;11.630;2022-12-07T16:13:32;2.50;99.90
21123;DHT22;10719;48.130;11.630;2022-12-07T16:15:57;2.40;99.90
21123;DHT22;10719;48.130;11.630;2022-12-07T16:18:23;2.40;99.90
21123;DHT22;10719;48.130;11.630;2022-12-07T16:20:48;2.30;99.90
21123;DHT22;10719;48.130;11.630;2022-12-07T16:23:14;2.30;99.90
21123;DHT22;10719;48.130;11.630;2022-12-07T16:25:40;2.20;99.90
21123;DHT22;10719;48.130;11.630;2022-12-07T16:28:06;2.10;99.90
21123;DHT22;10719;48.130;11.630;2022-12-07T16:30:32;2.20;99.90
21123;DHT22;10719;48.130;11.630;2022-12-07T16:32:57;2.20;99.90
21123;DHT22;10719;48.130;11.630;2022-12-07T16:35:23;2.10;99.90
21123;DHT22;10719;48.130;11.630;2022-12-07T16:37:49;2.00;99.90
21123;DHT22;10719;48.130;11.630;2022-12-07T16:40:14;2.00;99.90
21123;DHT22;10719;48.130;11.630;2022-12-07T16:42:40;2.00;99.90
21123;DHT22;10719;48.130;11.630;2022-12-07T16:45:05;2.00;99.90
21123;DHT22;10719;48.130;11.630;2022-12-07T16:47:31;1.90;99.90
21123;DHT22;10719;48.130;11.630;2022-12-07T16:49:57;1.90;99.90
21123;DHT22;10719;48.130;11.630;2022-12-07T16:52:22;1.90;99.90
21123;DHT22;10719;48.130;11.630;2022-12-07T16:54:48;1.90;99.90
21123;DHT22;10719;48.130;11.630;2022-12-07T16:57:14;1.90;99.90
21123;DHT22;10719;48.130;11.630;2022-12-07T16:59:40;1.90;99.90
21123;DHT22;10719;48.130;11.630;2022-12-07T17:02:05;2.00;99.90
21123;DHT22;10719;48.130;11.630;2022-12-07T17:04:32;1.90;99.90
21123;DHT22;10719;48.130;11.630;2022-12-07T17:06:58;1.90;99.90
21123;DHT22;10719;48.130;11.630;2022-12-07T17:09:24;1.90;99.90
21123;DHT22;10719;48.130;11.630;2022-12-07T17:11:50;1.90;99.90
21123;DHT22;10719;48.130;11.630;2022-12-07T17:14:16;1.90;99.90
21123;DHT22;10719;48.130;11.630;2022-12-07T17:17:00;1.90;99.90
21123;DHT22;10719;48.130;11.630;2022-12-07T17:19:26;1.90;99.90
21123;DHT22;10719;48.130;11.630;2022-12-07T17:21:52;1.80;99.90
21123;DHT22;10719;48.130;11.630;2022-12-07T17:24:17;1.80;99.90
21123;DHT22;10719;48.130;11.630;2022-12-07T17:26:44;1.80;99.90
21123;DHT22;10719;48.130;11.630;2022-12-07T17:29:12;1.70;99.90
21123;DHT22;10719;48.130;11.630;2022-12-07T17:31:38;1.70;99.90
21123;DHT22;10719;48.130;11.630;2022-12-07T17:34:08;1.60;99.90
21123;DHT22;10719;48.130;11.630;2022-12-07T17:36:34;1.60;99.90
21123;DHT22;10719;48.130;11.630;2022-12-07T17:39:00;1.50;99.90
21123;DHT22;10719;48.130;11.630;2022-12-07T17:41:28;1.50;99.90
21123;DHT22;10719;48.130;11.630;2022-12-07T17:44:16;1.50;99.90
21123;DHT22;10719;48.130;11.630;2022-12-07T17:46:42;1.50;99.90
21123;DHT22;10719;48.130;11.630;2022-12-07T17:49:08;1.50;99.90
21123;DHT22;10719;48.130;11.630;2022-12-07T17:51:34;1.40;99.90
21123;DHT22;10719;48.130;11.630;2022-12-07T17:54:19;1.40;99.90
21123;DHT22;10719;48.130;11.630;2022-12-07T17:56:45;1.30;99.90